Terminal Aerodrome Forecast
Issued by NWS Charleston, SC

Current Version | Previous Version | Text Only | Print | Product List | Glossary On
Versions: 1 2 3 4 5 6 7 8 9 10 11 12
000
FTUS42 KCHS 251724
TAFCHS
TAF
KCHS 251724Z 2518/2618 14012KT P6SM SCT025 BKN040
     FM260000 13006KT P6SM SCT025 SCT250
     FM260600 VRB04KT 6SM MIFG FEW010 BKN025
     FM261400 16010KT P6SM SCT040=

USA.gov is the U.S. government's official web portal to all federal, state and local government web resources and services.